createdAt,value
2019-05-19T00:01:09.454Z,63.74
2019-05-19T00:03:39.083Z,65.31
2019-05-19T00:06:08.744Z,66.03
2019-05-19T00:08:37.938Z,66.09
2019-05-19T00:11:06.937Z,66.48
2019-05-19T00:13:36.028Z,67.20
2019-05-19T00:16:05.671Z,67.79
2019-05-19T00:18:34.612Z,69.02
2019-05-19T00:21:04.305Z,68.97
2019-05-19T00:23:33.137Z,69.50
2019-05-19T00:26:01.770Z,69.50
2019-05-19T00:28:30.395Z,70.38
2019-05-19T00:31:00.143Z,68.23
2019-05-19T00:33:29.972Z,67.74
2019-05-19T00:35:58.921Z,66.96
2019-05-19T00:38:27.956Z,66.54
2019-05-19T00:40:56.972Z,65.48
2019-05-19T00:43:25.548Z,65.61
2019-05-19T00:45:54.185Z,64.42
2019-05-19T00:48:23.466Z,64.49
2019-05-19T00:50:52.463Z,64.06
2019-05-19T00:53:21.478Z,63.41
2019-05-19T00:55:52.124Z,63.05
2019-05-19T00:58:22.261Z,62.43
2019-05-19T01:00:51.264Z,62.77
2019-05-19T01:03:20.174Z,62.26
2019-05-19T01:05:49.101Z,62.28
2019-05-19T01:08:18.710Z,62.20
2019-05-19T01:10:47.755Z,62.31
2019-05-19T01:13:16.356Z,62.74
2019-05-19T01:15:45.847Z,62.38
2019-05-19T01:18:14.873Z,62.78
2019-05-19T01:20:43.870Z,63.44
2019-05-19T01:23:12.614Z,63.69
2019-05-19T01:25:41.354Z,65.18
2019-05-19T01:28:10.370Z,65.08
2019-05-19T01:30:39.002Z,65.40
2019-05-19T01:33:08.025Z,65.70
2019-05-19T01:35:36.672Z,66.04
2019-05-19T01:38:07.331Z,65.98
2019-05-19T01:40:38.378Z,66.17
2019-05-19T01:43:08.205Z,66.21
2019-05-19T01:45:36.849Z,67.44
2019-05-19T01:48:05.480Z,68.64
2019-05-19T01:50:34.913Z,68.57
2019-05-19T01:53:03.553Z,69.35
2019-05-19T01:55:33.163Z,69.67
2019-05-19T01:58:02.949Z,69.18
2019-05-19T02:00:31.725Z,69.25
2019-05-19T02:03:00.745Z,68.40
2019-05-19T02:05:29.518Z,66.19
2019-05-19T02:07:58.454Z,65.76
2019-05-19T02:10:27.070Z,65.69
2019-05-19T02:12:56.744Z,65.68
2019-05-19T02:15:25.682Z,65.65
2019-05-19T02:17:54.313Z,66.94
2019-05-19T02:20:32.618Z,65.26
2019-05-19T02:22:53.642Z,65.11
2019-05-19T02:25:22.480Z,65.71
2019-05-19T02:27:51.134Z,65.56
2019-05-19T02:30:21.941Z,65.78
2019-05-19T02:32:50.993Z,66.16
2019-05-19T02:35:19.636Z,67.12
2019-05-19T02:37:48.670Z,66.45
2019-05-19T02:40:18.714Z,66.51
2019-05-19T02:42:49.296Z,66.78
2019-05-19T02:45:19.316Z,68.76
2019-05-19T02:47:50.503Z,68.46
2019-05-19T02:50:20.238Z,68.82
2019-05-19T02:52:53.388Z,68.33
2019-05-19T02:55:23.237Z,68.96
2019-05-19T02:57:53.726Z,69.11
2019-05-19T03:00:28.013Z,69.11
2019-05-19T03:02:57.707Z,68.13
2019-05-19T03:05:27.353Z,67.99
2019-05-19T03:07:57.107Z,68.54
2019-05-19T03:10:26.224Z,69.18
2019-05-19T03:12:57.279Z,69.27
2019-05-19T03:15:26.081Z,69.90
2019-05-19T03:17:55.678Z,70.06
2019-05-19T03:20:24.608Z,69.90
2019-05-19T03:22:53.238Z,71.05
2019-05-19T03:25:26.407Z,69.88
2019-05-19T03:27:55.425Z,70.37
2019-05-19T03:30:41.101Z,69.94
2019-05-19T03:33:11.599Z,69.24
2019-05-19T03:35:41.170Z,68.74
2019-05-19T03:38:10.789Z,68.73
2019-05-19T03:40:39.886Z,68.55
2019-05-19T03:43:09.535Z,67.45
2019-05-19T03:45:39.927Z,66.22
2019-05-19T03:48:09.502Z,66.23
2019-05-19T03:50:39.515Z,67.10
2019-05-19T03:53:08.582Z,64.82
2019-05-19T03:55:37.596Z,64.68
2019-05-19T03:58:09.226Z,63.75
2019-05-19T04:00:37.900Z,63.70
2019-05-19T04:03:06.884Z,63.22
2019-05-19T04:05:35.969Z,63.14
2019-05-19T04:08:04.959Z,62.63
2019-05-19T04:10:34.519Z,61.82
2019-05-19T04:13:03.547Z,60.62
2019-05-19T04:15:32.582Z,60.26
2019-05-19T04:18:02.104Z,59.92
2019-05-19T04:20:31.754Z,58.82
2019-05-19T04:23:00.803Z,58.23
2019-05-19T04:25:30.018Z,58.56
2019-05-19T04:27:59.030Z,57.88
2019-05-19T04:30:28.000Z,57.04
2019-05-19T04:32:57.529Z,57.91
2019-05-19T04:35:26.452Z,58.59
2019-05-19T04:37:56.361Z,57.58
2019-05-19T04:40:25.259Z,57.82
2019-05-19T04:42:54.898Z,58.10
2019-05-19T04:45:23.780Z,57.93
2019-05-19T04:47:52.766Z,57.36
2019-05-19T04:50:21.673Z,57.91
2019-05-19T04:52:52.246Z,57.72
2019-05-19T04:55:21.182Z,59.36
2019-05-19T04:57:50.171Z,59.10
2019-05-19T05:00:18.952Z,59.01
2019-05-19T05:02:47.526Z,57.74
2019-05-19T05:05:16.583Z,57.55
2019-05-19T05:07:45.229Z,58.03
2019-05-19T05:10:14.282Z,57.57
2019-05-19T05:12:43.164Z,56.82
2019-05-19T05:15:12.374Z,56.07
2019-05-19T05:17:41.893Z,55.10
2019-05-19T05:20:10.833Z,54.69
2019-05-19T05:22:39.562Z,53.21
2019-05-19T05:25:09.265Z,52.07
2019-05-19T05:27:38.183Z,52.70
2019-05-19T05:30:08.514Z,53.07
2019-05-19T05:32:39.104Z,51.60
2019-05-19T05:35:08.899Z,51.14
2019-05-19T05:37:37.711Z,51.08
2019-05-19T05:40:09.565Z,52.34
2019-05-19T05:42:40.302Z,53.05
2019-05-19T05:45:10.459Z,52.57
2019-05-19T05:47:39.096Z,53.66
2019-05-19T05:50:10.197Z,55.72
2019-05-19T05:52:39.351Z,56.72
2019-05-19T05:55:08.069Z,57.32
2019-05-19T05:57:37.467Z,56.36
2019-05-19T06:00:10.436Z,56.54
2019-05-19T06:02:39.119Z,56.70
2019-05-19T06:05:09.140Z,56.13
2019-05-19T06:07:38.395Z,57.88
2019-05-19T06:10:08.466Z,56.63
2019-05-19T06:12:37.093Z,54.91
2019-05-19T06:15:05.879Z,56.61
2019-05-19T06:17:34.441Z,55.56
2019-05-19T06:20:03.711Z,54.79
2019-05-19T06:22:32.857Z,54.95
2019-05-19T06:25:01.508Z,52.88
2019-05-19T06:27:30.590Z,51.82
2019-05-19T06:29:59.216Z,50.26
2019-05-19T06:32:35.523Z,47.94
2019-05-19T06:35:04.524Z,46.74
2019-05-19T06:37:33.090Z,47.54
2019-05-19T06:40:01.727Z,46.81
2019-05-19T06:42:30.290Z,43.39
2019-05-19T06:44:58.860Z,43.23
2019-05-19T06:47:27.660Z,43.50
2019-05-19T06:49:56.364Z,43.33
2019-05-19T06:52:24.999Z,40.82
2019-05-19T06:54:53.633Z,39.82
2019-05-19T06:57:22.216Z,40.99
2019-05-19T06:59:50.859Z,39.25
2019-05-19T07:02:19.784Z,37.00
2019-05-19T07:04:48.492Z,38.26
2019-05-19T07:07:17.060Z,37.52
2019-05-19T07:09:58.112Z,37.87
2019-05-19T07:12:16.078Z,37.22
2019-05-19T07:14:44.743Z,34.56
2019-05-19T07:17:13.313Z,33.54
2019-05-19T07:19:41.940Z,30.72
2019-05-19T07:22:10.677Z,31.05
2019-05-19T07:24:39.318Z,30.71
2019-05-19T07:27:08.727Z,28.79
2019-05-19T07:29:37.354Z,26.85
2019-05-19T07:32:06.040Z,24.73
2019-05-19T07:34:34.720Z,24.90
2019-05-19T07:37:03.422Z,21.37
2019-05-19T07:39:32.078Z,22.02
2019-05-19T07:42:01.656Z,21.14
2019-05-19T07:44:30.425Z,18.75
2019-05-19T07:46:59.086Z,18.33
2019-05-19T07:49:27.751Z,17.04
2019-05-19T07:51:56.358Z,17.96
2019-05-19T07:54:24.987Z,19.08
2019-05-19T07:56:53.715Z,17.15
2019-05-19T07:59:22.349Z,16.93
2019-05-19T08:01:51.185Z,17.65
2019-05-19T08:04:19.805Z,17.84
2019-05-19T08:06:48.439Z,16.06
2019-05-19T08:09:17.120Z,17.22
2019-05-19T08:11:45.762Z,16.85
2019-05-19T08:14:14.396Z,14.78
2019-05-19T08:16:43.052Z,14.38
2019-05-19T08:19:11.681Z,15.48
2019-05-19T08:21:40.367Z,15.38
2019-05-19T08:24:09.001Z,15.97
2019-05-19T08:26:37.632Z,17.39
2019-05-19T08:29:06.278Z,19.04
2019-05-19T08:31:34.922Z,20.13
2019-05-19T08:34:03.635Z,20.19
2019-05-19T08:36:32.276Z,21.52
2019-05-19T08:39:00.950Z,22.75
2019-05-19T08:41:29.592Z,22.55
2019-05-19T08:43:58.238Z,23.16
2019-05-19T08:46:26.847Z,24.42
2019-05-19T08:48:58.331Z,26.01
2019-05-19T08:51:27.505Z,27.69
2019-05-19T08:53:56.178Z,28.65
2019-05-19T08:56:24.848Z,29.25
2019-05-19T08:58:55.327Z,30.01
2019-05-19T09:01:24.032Z,30.46
2019-05-19T09:03:52.670Z,30.23
2019-05-19T09:06:21.353Z,30.37
2019-05-19T09:08:49.985Z,29.86
2019-05-19T09:11:18.814Z,24.90
2019-05-19T09:13:47.704Z,22.02
2019-05-19T09:16:16.404Z,19.09
2019-05-19T09:18:45.065Z,16.24
2019-05-19T09:21:13.825Z,14.83
2019-05-19T09:23:42.527Z,15.38
2019-05-19T09:26:11.175Z,15.50
2019-05-19T09:28:39.884Z,14.67
2019-05-19T09:31:08.576Z,13.78
2019-05-19T09:33:37.259Z,12.34
2019-05-19T09:36:06.056Z,11.46
2019-05-19T09:38:34.711Z,12.01
2019-05-19T09:41:03.454Z,13.71
2019-05-19T09:43:32.101Z,13.86
2019-05-19T09:46:00.742Z,14.25
2019-05-19T09:48:29.446Z,15.84
2019-05-19T09:50:58.144Z,17.11
2019-05-19T09:53:26.793Z,18.48
2019-05-19T09:55:55.441Z,19.56
2019-05-19T09:58:24.078Z,19.20
2019-05-19T10:00:52.749Z,18.23
2019-05-19T10:03:21.497Z,17.17
2019-05-19T10:05:50.137Z,16.91
2019-05-19T10:08:22.562Z,17.79
2019-05-19T10:11:11.369Z,19.19
2019-05-19T10:13:40.071Z,20.29
2019-05-19T10:16:08.727Z,21.56
2019-05-19T10:18:37.351Z,21.16
2019-05-19T10:21:06.053Z,20.66
2019-05-19T10:23:34.781Z,19.23
2019-05-19T10:26:03.684Z,17.50
2019-05-19T10:28:32.355Z,14.88
2019-05-19T10:31:01.021Z,15.01
2019-05-19T10:33:29.661Z,15.81
2019-05-19T10:35:58.383Z,15.96
2019-05-19T10:38:27.193Z,16.38
2019-05-19T10:40:55.840Z,17.05
2019-05-19T10:43:24.594Z,18.08
2019-05-19T10:46:02.375Z,18.52
2019-05-19T10:48:31.128Z,19.27
2019-05-19T10:50:59.890Z,20.17
2019-05-19T10:53:28.527Z,20.40
2019-05-19T10:55:57.260Z,21.06
2019-05-19T10:58:26.158Z,21.83
2019-05-19T11:00:55.050Z,22.91
2019-05-19T11:03:23.700Z,23.37
2019-05-19T11:05:52.272Z,23.08
2019-05-19T11:08:20.850Z,23.70
2019-05-19T11:10:49.496Z,25.10
2019-05-19T11:13:18.180Z,25.35
2019-05-19T11:15:46.807Z,25.40
2019-05-19T11:18:15.310Z,25.82
2019-05-19T11:20:43.874Z,25.86
2019-05-19T11:23:12.501Z,26.13
2019-05-19T11:25:51.079Z,26.17
2019-05-19T11:28:11.518Z,26.88
2019-05-19T11:30:40.156Z,25.69
2019-05-19T11:33:08.797Z,25.48
2019-05-19T11:35:37.422Z,24.59
2019-05-19T11:38:06.951Z,25.30
2019-05-19T11:40:35.585Z,26.77
2019-05-19T11:43:04.226Z,26.60
2019-05-19T11:45:32.883Z,27.42
2019-05-19T11:48:01.555Z,27.62
2019-05-19T11:50:30.190Z,27.71
2019-05-19T11:52:58.806Z,26.74
2019-05-19T11:55:27.446Z,28.18
2019-05-19T11:57:56.081Z,28.78
2019-05-19T12:00:24.821Z,28.87
2019-05-19T12:02:53.533Z,29.29
2019-05-19T12:05:23.207Z,28.73
2019-05-19T12:07:51.765Z,28.45
2019-05-19T12:10:20.467Z,28.79
2019-05-19T12:12:49.108Z,28.37
2019-05-19T12:15:18.043Z,28.73
2019-05-19T12:17:46.710Z,29.40
2019-05-19T12:20:15.448Z,28.80
2019-05-19T12:22:44.076Z,29.45
2019-05-19T12:25:13.117Z,28.97
2019-05-19T12:27:41.746Z,29.64
2019-05-19T12:30:13.304Z,30.54
2019-05-19T12:32:42.054Z,30.77
2019-05-19T12:35:10.926Z,31.02
2019-05-19T12:37:39.649Z,29.91
2019-05-19T12:40:08.479Z,28.97
2019-05-19T12:42:37.521Z,28.87
2019-05-19T12:45:08.746Z,29.05
2019-05-19T12:47:37.407Z,29.48
2019-05-19T12:50:07.019Z,29.24
2019-05-19T12:52:36.039Z,29.07
2019-05-19T12:55:05.513Z,29.29
2019-05-19T12:57:34.143Z,29.95
2019-05-19T13:00:02.906Z,29.18
2019-05-19T13:02:31.546Z,30.11
2019-05-19T13:05:04.765Z,30.91
2019-05-19T13:07:30.546Z,32.16
2019-05-19T13:09:59.202Z,30.97
2019-05-19T13:12:28.000Z,30.10
2019-05-19T13:14:56.652Z,30.01
2019-05-19T13:17:25.291Z,31.61
2019-05-19T13:19:54.037Z,30.45
2019-05-19T13:22:22.674Z,31.25
2019-05-19T13:24:51.372Z,30.57
2019-05-19T13:27:20.003Z,30.54
2019-05-19T13:29:48.677Z,30.84
2019-05-19T13:32:17.410Z,30.26
2019-05-19T13:34:46.060Z,30.68
2019-05-19T13:37:14.823Z,31.06
2019-05-19T13:39:43.486Z,31.21
2019-05-19T13:42:12.121Z,31.60
2019-05-19T13:44:40.765Z,31.94
2019-05-19T13:47:09.397Z,31.39
2019-05-19T13:49:38.085Z,32.73
2019-05-19T13:52:06.716Z,33.16
2019-05-19T13:54:35.345Z,31.11
2019-05-19T13:57:12.154Z,32.31
2019-05-19T13:59:34.398Z,31.79
2019-05-19T14:02:03.119Z,31.88
2019-05-19T14:04:31.885Z,33.05
2019-05-19T14:07:00.660Z,34.03
2019-05-19T14:09:29.300Z,34.78
2019-05-19T14:11:57.966Z,34.84
2019-05-19T14:14:26.626Z,34.95
2019-05-19T14:16:55.303Z,35.34
2019-05-19T14:19:23.928Z,35.33
2019-05-19T14:21:52.572Z,36.54
2019-05-19T14:24:21.318Z,37.03
2019-05-19T14:26:50.235Z,37.15
2019-05-19T14:29:18.853Z,37.41
2019-05-19T14:31:47.495Z,37.27
2019-05-19T14:34:16.150Z,38.22
2019-05-19T14:36:44.777Z,38.06
2019-05-19T14:39:13.421Z,38.26
2019-05-19T14:41:43.897Z,38.35
2019-05-19T14:44:12.569Z,38.46
2019-05-19T14:46:41.262Z,38.83
2019-05-19T14:49:09.896Z,38.07
2019-05-19T14:51:38.547Z,38.53
2019-05-19T14:54:07.200Z,38.11
2019-05-19T14:56:35.877Z,37.49
2019-05-19T14:59:04.500Z,38.14
2019-05-19T15:01:33.162Z,38.16
2019-05-19T15:04:01.735Z,38.10
2019-05-19T15:06:30.500Z,38.30
2019-05-19T15:08:59.559Z,37.90
2019-05-19T15:11:28.286Z,38.34
2019-05-19T15:13:56.983Z,38.01
2019-05-19T15:16:25.642Z,37.85
2019-05-19T15:18:54.276Z,38.10
2019-05-19T15:21:23.145Z,38.42
2019-05-19T15:23:51.799Z,38.94
2019-05-19T15:26:20.443Z,39.02
2019-05-19T15:28:49.087Z,39.36
2019-05-19T15:31:17.731Z,39.46
2019-05-19T15:33:46.458Z,39.17
2019-05-19T15:36:15.107Z,39.59
2019-05-19T15:38:43.871Z,39.65
2019-05-19T15:41:12.518Z,39.80
2019-05-19T15:43:41.166Z,40.11
2019-05-19T15:46:09.804Z,40.21
2019-05-19T15:48:38.440Z,40.15
2019-05-19T15:51:07.064Z,40.00
2019-05-19T15:53:35.724Z,39.79
2019-05-19T15:56:04.413Z,39.37
2019-05-19T15:58:33.088Z,39.58
2019-05-19T16:01:01.793Z,40.40
2019-05-19T16:03:30.344Z,40.46
2019-05-19T16:05:59.096Z,41.29
2019-05-19T16:08:27.733Z,41.67
2019-05-19T16:10:56.389Z,41.64
2019-05-19T16:13:24.979Z,42.60
2019-05-19T16:15:53.613Z,42.46
2019-05-19T16:18:22.183Z,42.10
2019-05-19T16:20:50.827Z,42.14
2019-05-19T16:23:19.496Z,41.94
2019-05-19T16:25:48.136Z,41.41
2019-05-19T16:28:29.959Z,41.92
2019-05-19T16:30:47.158Z,42.00
2019-05-19T16:33:15.724Z,42.78
2019-05-19T16:35:44.409Z,42.62
2019-05-19T16:38:13.078Z,42.74
2019-05-19T16:40:41.771Z,42.65
2019-05-19T16:43:10.398Z,42.82
2019-05-19T16:45:39.046Z,43.24
2019-05-19T16:48:07.687Z,43.92
2019-05-19T16:50:36.326Z,43.45
2019-05-19T16:53:05.064Z,43.85
2019-05-19T16:55:33.983Z,44.80
2019-05-19T16:58:02.617Z,44.49
2019-05-19T17:00:31.296Z,45.04
2019-05-19T17:02:59.971Z,44.67
2019-05-19T17:05:28.564Z,44.82
2019-05-19T17:07:57.207Z,45.19
2019-05-19T17:10:25.863Z,44.62
2019-05-19T17:12:54.689Z,44.89
2019-05-19T17:15:23.461Z,44.99
2019-05-19T17:17:52.192Z,44.16
2019-05-19T17:20:22.790Z,43.96
2019-05-19T17:22:51.433Z,44.94
2019-05-19T17:25:20.242Z,45.10
2019-05-19T17:27:48.973Z,45.51
2019-05-19T17:30:18.608Z,45.30
2019-05-19T17:32:47.307Z,46.02
2019-05-19T17:35:15.945Z,46.40
2019-05-19T17:37:44.579Z,46.76
2019-05-19T17:40:14.834Z,46.44
2019-05-19T17:42:43.667Z,46.93
2019-05-19T17:45:13.536Z,47.67
2019-05-19T17:47:42.221Z,47.10
2019-05-19T17:50:11.252Z,46.95
2019-05-19T17:52:39.894Z,47.17
2019-05-19T17:55:09.444Z,46.48
2019-05-19T17:57:38.593Z,46.95
2019-05-19T18:00:10.439Z,46.69
2019-05-19T18:02:39.198Z,46.05
2019-05-19T18:05:08.001Z,46.99
2019-05-19T18:07:36.744Z,47.57
2019-05-19T18:10:06.824Z,48.12
2019-05-19T18:12:35.454Z,48.88
2019-05-19T18:15:05.320Z,49.24
2019-05-19T18:17:33.895Z,49.24
2019-05-19T18:20:02.463Z,49.07
2019-05-19T18:22:31.187Z,49.61
2019-05-19T18:24:59.837Z,50.50
2019-05-19T18:27:28.569Z,51.49
2019-05-19T18:29:57.233Z,51.95
2019-05-19T18:32:25.896Z,49.79
2019-05-19T18:34:54.556Z,51.35
2019-05-19T18:37:23.305Z,49.40
2019-05-19T18:39:51.936Z,49.90
2019-05-19T18:42:20.694Z,51.28
2019-05-19T18:44:49.348Z,50.01
2019-05-19T18:47:17.982Z,48.11
2019-05-19T18:49:46.614Z,50.39
2019-05-19T18:52:15.282Z,50.99
2019-05-19T18:54:43.930Z,52.00
2019-05-19T18:57:12.583Z,51.88
2019-05-19T18:59:47.245Z,51.63
2019-05-19T19:02:11.824Z,51.99
2019-05-19T19:04:40.955Z,52.12
2019-05-19T19:07:09.582Z,52.13
2019-05-19T19:09:38.233Z,52.44
2019-05-19T19:12:06.924Z,50.31
2019-05-19T19:14:35.528Z,51.14
2019-05-19T19:17:04.246Z,51.25
2019-05-19T19:19:34.448Z,50.33
2019-05-19T19:22:03.096Z,51.69
2019-05-19T19:24:31.733Z,50.73
2019-05-19T19:27:00.488Z,51.07
2019-05-19T19:29:29.145Z,52.20
2019-05-19T19:31:57.847Z,51.89
2019-05-19T19:34:26.468Z,52.55
2019-05-19T19:36:55.145Z,53.12
2019-05-19T19:39:23.812Z,53.00
2019-05-19T19:41:52.439Z,51.83
2019-05-19T19:44:21.102Z,52.63
2019-05-19T19:46:53.384Z,52.98
2019-05-19T19:49:20.144Z,53.67
2019-05-19T19:51:50.245Z,53.90
2019-05-19T19:54:18.958Z,54.49
2019-05-19T19:56:47.718Z,54.27
2019-05-19T19:59:16.294Z,54.46
2019-05-19T20:01:47.729Z,54.72
2019-05-19T20:04:16.339Z,54.72
2019-05-19T20:06:45.069Z,56.50
2019-05-19T20:09:13.727Z,56.58
2019-05-19T20:11:43.896Z,56.75
2019-05-19T20:14:12.656Z,57.36
2019-05-19T20:16:41.330Z,55.45
2019-05-19T20:19:10.217Z,54.71
2019-05-19T20:21:38.840Z,54.70
2019-05-19T20:24:07.577Z,54.76
2019-05-19T20:26:36.346Z,55.63
2019-05-19T20:29:04.942Z,57.74
2019-05-19T20:31:33.584Z,57.46
2019-05-19T20:34:02.278Z,58.06
2019-05-19T20:36:30.986Z,56.24
2019-05-19T20:38:59.532Z,55.92
2019-05-19T20:41:28.190Z,56.60
2019-05-19T20:43:56.847Z,58.08
2019-05-19T20:46:25.483Z,57.83
2019-05-19T20:48:54.343Z,57.56
2019-05-19T20:51:23.066Z,57.10
2019-05-19T20:53:53.406Z,56.73
2019-05-19T20:56:22.130Z,56.84
2019-05-19T20:58:50.754Z,56.97
2019-05-19T21:01:19.496Z,56.86
2019-05-19T21:03:48.057Z,57.13
2019-05-19T21:06:16.708Z,57.35
2019-05-19T21:08:45.363Z,57.33
2019-05-19T21:11:14.005Z,58.25
2019-05-19T21:13:42.638Z,57.62
2019-05-19T21:16:11.372Z,57.55
2019-05-19T21:18:40.063Z,57.32
2019-05-19T21:21:08.715Z,57.59
2019-05-19T21:23:37.344Z,57.19
2019-05-19T21:26:05.984Z,57.41
2019-05-19T21:28:34.639Z,57.47
2019-05-19T21:31:05.799Z,57.48
2019-05-19T21:33:33.561Z,57.42
2019-05-19T21:36:02.213Z,58.47
2019-05-19T21:38:30.827Z,57.78
2019-05-19T21:40:59.534Z,58.02
2019-05-19T21:43:28.168Z,59.40
2019-05-19T21:45:56.745Z,59.68
2019-05-19T21:48:33.059Z,59.12
2019-05-19T21:51:01.820Z,58.00
2019-05-19T21:53:30.442Z,58.29
2019-05-19T21:55:59.082Z,59.75
2019-05-19T21:58:27.875Z,59.43
2019-05-19T22:00:56.514Z,59.16
2019-05-19T22:03:25.152Z,57.40
2019-05-19T22:05:53.897Z,57.75
2019-05-19T22:08:22.617Z,57.36
2019-05-19T22:10:51.303Z,58.10
2019-05-19T22:13:19.942Z,53.98
2019-05-19T22:15:48.582Z,54.94
2019-05-19T22:18:17.230Z,55.45
2019-05-19T22:20:45.897Z,55.71
2019-05-19T22:23:14.566Z,55.29
2019-05-19T22:25:43.200Z,54.63
2019-05-19T22:28:11.834Z,54.77
2019-05-19T22:30:40.478Z,55.18
2019-05-19T22:33:09.188Z,55.49
2019-05-19T22:35:38.005Z,54.85
2019-05-19T22:38:09.358Z,54.66
2019-05-19T22:40:37.042Z,54.31
2019-05-19T22:43:05.766Z,54.05
2019-05-19T22:45:34.334Z,54.05
2019-05-19T22:48:03.033Z,54.51
2019-05-19T22:50:31.642Z,54.73
2019-05-19T22:53:00.297Z,53.88
2019-05-19T22:55:28.951Z,53.84
2019-05-19T22:57:57.579Z,53.83
2019-05-19T23:00:26.593Z,54.34
2019-05-19T23:02:55.294Z,53.03
2019-05-19T23:05:23.936Z,53.95
2019-05-19T23:07:52.586Z,53.26
2019-05-19T23:10:21.309Z,52.39
2019-05-19T23:12:50.011Z,52.82
2019-05-19T23:15:19.620Z,52.14
2019-05-19T23:17:48.241Z,52.39
2019-05-19T23:20:17.280Z,51.98
2019-05-19T23:22:45.925Z,51.91
2019-05-19T23:25:14.562Z,53.15
2019-05-19T23:27:43.205Z,51.73
2019-05-19T23:30:12.326Z,51.77
2019-05-19T23:32:40.981Z,53.37
2019-05-19T23:35:09.619Z,52.44
2019-05-19T23:37:38.262Z,52.31
2019-05-19T23:40:09.170Z,54.05
2019-05-19T23:42:37.909Z,54.77
2019-05-19T23:45:08.227Z,56.24
2019-05-19T23:47:36.874Z,55.83
2019-05-19T23:50:06.707Z,55.12
2019-05-19T23:52:35.492Z,55.34
2019-05-19T23:55:05.715Z,55.09
2019-05-19T23:57:34.372Z,55.81
